createdAt,value
2022-09-07T00:03:28.925Z,99958.72
2022-09-07T00:07:45.055Z,99965.09
2022-09-07T00:12:01.234Z,99960.31
2022-09-07T00:16:23.444Z,99962.03
2022-09-07T00:20:40.133Z,99953.47
2022-09-07T00:24:56.370Z,99954.31
2022-09-07T00:29:12.541Z,99952.25
2022-09-07T00:33:28.772Z,99945.50
2022-09-07T00:37:44.871Z,99947.41
2022-09-07T00:42:01.702Z,99942.56
2022-09-07T00:46:21.239Z,99938.78
2022-09-07T00:50:54.183Z,99937.00
2022-09-07T00:55:13.978Z,99942.69
2022-09-07T00:59:32.513Z,99938.47
2022-09-07T01:03:50.742Z,99937.16
2022-09-07T01:08:07.311Z,99927.69
2022-09-07T01:12:23.423Z,99928.19
2022-09-07T01:17:02.141Z,99937.63
2022-09-07T01:21:20.949Z,99929.69
2022-09-07T01:25:57.584Z,99922.84
2022-09-07T01:30:21.433Z,99929.53
2022-09-07T01:34:37.790Z,99924.63
2022-09-07T01:39:12.335Z,99921.72
2022-09-07T01:43:47.044Z,99923.38
2022-09-07T01:48:07.477Z,99922.69
2022-09-07T01:52:36.691Z,99921.16
2022-09-07T01:56:56.338Z,99903.38
2022-09-07T02:01:23.937Z,99902.59
2022-09-07T02:06:04.755Z,99903.56
2022-09-07T02:10:32.431Z,99903.22
2022-09-07T02:14:52.884Z,99904.56
2022-09-07T02:19:13.409Z,99903.56
2022-09-07T02:23:33.282Z,99900.63
2022-09-07T02:27:54.511Z,99902.94
2022-09-07T02:32:10.629Z,99891.88
2022-09-07T02:36:29.584Z,99899.84
2022-09-07T02:40:53.114Z,99896.09
2022-09-07T02:45:10.770Z,99887.63
2022-09-07T02:49:35.841Z,99885.72
2022-09-07T02:54:22.590Z,99896.09
2022-09-07T02:58:44.495Z,99886.84
2022-09-07T03:03:09.793Z,99885.66
2022-09-07T03:07:35.862Z,99883.41
2022-09-07T03:11:52.431Z,99882.91
2022-09-07T03:16:13.725Z,99871.53
2022-09-07T03:20:29.910Z,99881.81
2022-09-07T03:24:46.022Z,99887.97
2022-09-07T03:29:02.066Z,99880.34
2022-09-07T03:33:18.312Z,99884.09
2022-09-07T03:37:37.119Z,99891.56
2022-09-07T03:41:53.244Z,99896.41
2022-09-07T03:46:10.665Z,99892.88
2022-09-07T03:50:26.851Z,99898.38
2022-09-07T03:54:42.849Z,99890.75
2022-09-07T03:58:59.235Z,99891.88
2022-09-07T04:03:15.312Z,99891.03
2022-09-07T04:07:31.306Z,99894.63
2022-09-07T04:11:47.604Z,99895.59
2022-09-07T04:16:20.227Z,99902.06
2022-09-07T04:20:36.276Z,99912.31
2022-09-07T04:24:52.280Z,99913.44
2022-09-07T04:29:09.354Z,99915.19
2022-09-07T04:33:25.419Z,99911.81
2022-09-07T04:37:41.812Z,99911.66
2022-09-07T04:41:57.767Z,99916.19
2022-09-07T04:46:23.009Z,99901.78
2022-09-07T04:50:39.067Z,99908.13
2022-09-07T04:54:55.146Z,99921.69
2022-09-07T04:59:11.357Z,99914.91
2022-09-07T05:03:28.345Z,99904.50
2022-09-07T05:07:45.045Z,99901.16
2022-09-07T05:12:01.184Z,99913.66
2022-09-07T05:16:19.758Z,99923.09
2022-09-07T05:20:35.995Z,99930.88
2022-09-07T05:24:52.392Z,99925.22
2022-09-07T05:38:25.951Z,99932.94
2022-09-07T05:42:42.303Z,99934.75
2022-09-07T05:46:58.662Z,99927.69
2022-09-07T05:51:15.058Z,99933.69
2022-09-07T05:55:34.370Z,99940.03
2022-09-07T05:59:50.390Z,99923.78
2022-09-07T06:04:06.554Z,99930.00
2022-09-07T06:08:22.672Z,99928.25
2022-09-07T06:12:38.758Z,99934.06
2022-09-07T06:16:54.788Z,99932.34
2022-09-07T06:21:17.118Z,99922.91
2022-09-07T06:25:33.611Z,99916.28
2022-09-07T06:29:49.634Z,99914.72
2022-09-07T06:34:05.696Z,99909.66
2022-09-07T06:38:21.765Z,99915.44
2022-09-07T06:42:38.723Z,99917.41
2022-09-07T06:51:19.653Z,99912.22
2022-09-07T06:55:42.558Z,99901.22
2022-09-07T06:59:58.618Z,99899.88
2022-09-07T07:04:15.160Z,99899.66
2022-09-07T07:08:31.596Z,99898.25
2022-09-07T07:12:47.734Z,99900.47
2022-09-07T07:17:03.712Z,99894.97
2022-09-07T07:21:19.909Z,99898.91
2022-09-07T07:25:36.478Z,99908.09
2022-09-07T07:29:55.393Z,99906.19
2022-09-07T07:34:11.698Z,99909.06
2022-09-07T07:43:07.635Z,99898.62
2022-09-07T07:47:23.838Z,99908.41
2022-09-07T07:56:16.345Z,99909.59
2022-09-07T08:00:51.002Z,99902.66
2022-09-07T08:05:09.114Z,99902.03
2022-09-07T08:09:26.791Z,99899.81
2022-09-07T08:13:44.049Z,99898.94
2022-09-07T08:18:00.075Z,99901.63
2022-09-07T08:22:16.099Z,99896.09
2022-09-07T08:26:32.102Z,99890.94
2022-09-07T08:30:48.161Z,99883.91
2022-09-07T08:35:04.360Z,99872.06
2022-09-07T08:39:20.522Z,99883.03
2022-09-07T08:43:54.965Z,99876.34
2022-09-07T08:48:14.938Z,99876.72
2022-09-07T08:52:49.111Z,99868.03
2022-09-07T08:57:20.842Z,99869.84
2022-09-07T09:01:41.192Z,99869.03
2022-09-07T09:06:10.017Z,99868.38
2022-09-07T09:10:40.462Z,99868.84
2022-09-07T09:15:18.141Z,99868.72
2022-09-07T09:20:24.584Z,99860.16
2022-09-07T09:24:45.888Z,99861.69
2022-09-07T09:29:15.873Z,99858.53
2022-09-07T09:33:32.088Z,99861.13
2022-09-07T09:37:48.214Z,99855.19
2022-09-07T09:42:15.182Z,99855.25
2022-09-07T09:46:36.549Z,99850.31
2022-09-07T09:55:36.089Z,99845.66
2022-09-07T10:00:06.905Z,99836.03
2022-09-07T10:04:35.186Z,99839.19
2022-09-07T10:09:02.108Z,99833.56
2022-09-07T10:13:32.674Z,99828.75
2022-09-07T10:17:50.385Z,99835.09
2022-09-07T10:22:33.749Z,99834.28
2022-09-07T10:26:50.334Z,99830.34
2022-09-07T10:31:15.737Z,99828.78
2022-09-07T10:35:44.559Z,99829.94
2022-09-07T10:40:12.393Z,99825.31
2022-09-07T10:44:57.096Z,99820.34
2022-09-07T10:49:40.017Z,99815.72
2022-09-07T10:54:33.117Z,99815.31
2022-09-07T10:59:02.946Z,99806.97
2022-09-07T11:03:56.452Z,99805.13
2022-09-07T11:09:15.822Z,99789.63
2022-09-07T11:13:15.781Z,99793.69
2022-09-07T11:17:38.763Z,99799.69
2022-09-07T11:22:27.637Z,99799.19
2022-09-07T11:26:54.037Z,99794.84
2022-09-07T11:37:16.368Z,99784.69
2022-09-07T11:46:56.109Z,99767.59
2022-09-07T11:51:37.735Z,99759.75
2022-09-07T11:56:01.282Z,99755.72
2022-09-07T12:00:22.967Z,99755.72
2022-09-07T12:05:00.991Z,99746.84
2022-09-07T12:09:35.614Z,99745.53
2022-09-07T12:13:54.426Z,99745.16
2022-09-07T12:18:35.275Z,99735.34
2022-09-07T12:23:16.188Z,99743.94
2022-09-07T12:27:32.194Z,99746.94
2022-09-07T12:31:58.719Z,99735.63
2022-09-07T12:36:41.712Z,99737.84
2022-09-07T12:41:02.310Z,99728.25
2022-09-07T12:45:30.720Z,99731.25
2022-09-07T12:50:28.486Z,99728.63
2022-09-07T12:55:09.974Z,99718.47
2022-09-07T12:59:51.949Z,99723.94
2022-09-07T13:04:27.035Z,99721.63
2022-09-07T13:08:50.642Z,99712.34
2022-09-07T13:13:15.828Z,99711.19
2022-09-07T13:17:35.272Z,99702.00
2022-09-07T13:21:52.342Z,99696.22
2022-09-07T13:26:12.194Z,99693.94
2022-09-07T13:30:37.139Z,99675.72
2022-09-07T13:35:22.970Z,99674.22
2022-09-07T13:39:42.328Z,99679.59
2022-09-07T13:44:03.891Z,99670.81
2022-09-07T13:48:33.064Z,99669.81
2022-09-07T13:53:08.245Z,99673.37
2022-09-07T13:57:43.129Z,99674.03
2022-09-07T14:02:00.045Z,99659.41
2022-09-07T14:06:28.156Z,99653.41
2022-09-07T14:10:49.180Z,99650.66
2022-09-07T14:15:40.945Z,99647.56
2022-09-07T14:19:59.221Z,99653.59
2022-09-07T14:24:36.552Z,99641.47
2022-09-07T14:28:56.818Z,99646.84
2022-09-07T14:33:17.447Z,99646.09
2022-09-07T14:37:33.988Z,99648.88
2022-09-07T14:41:51.116Z,99645.94
2022-09-07T14:46:27.658Z,99643.81
2022-09-07T14:51:00.892Z,99650.59
2022-09-07T14:55:37.361Z,99656.00
2022-09-07T14:59:54.027Z,99644.56
2022-09-07T15:04:19.222Z,99645.94
2022-09-07T15:08:40.945Z,99642.75
2022-09-07T15:13:01.714Z,99640.78
2022-09-07T15:17:48.175Z,99644.31
2022-09-07T15:22:10.558Z,99637.59
2022-09-07T15:27:02.605Z,99651.97
2022-09-07T15:35:58.989Z,99649.53
2022-09-07T15:40:25.853Z,99650.19
2022-09-07T15:44:41.897Z,99656.78
2022-09-07T15:48:58.375Z,99654.28
2022-09-07T15:57:59.350Z,99667.38
2022-09-07T16:07:02.059Z,99656.00
2022-09-07T16:11:26.645Z,99659.09
2022-09-07T16:15:45.854Z,99658.34
2022-09-07T16:20:02.470Z,99649.97
2022-09-07T16:24:18.778Z,99657.50
2022-09-07T16:28:37.266Z,99656.56
2022-09-07T16:32:53.557Z,99648.56
2022-09-07T16:37:09.583Z,99637.63
2022-09-07T16:41:28.564Z,99640.47
2022-09-07T16:50:20.595Z,99638.38
2022-09-07T16:54:36.795Z,99634.56
2022-09-07T16:58:55.715Z,99636.78
2022-09-07T17:03:12.167Z,99625.91
2022-09-07T17:07:28.261Z,99615.25
2022-09-07T17:11:44.399Z,99625.75
2022-09-07T17:16:05.382Z,99617.00
2022-09-07T17:20:21.529Z,99613.00
2022-09-07T17:24:38.078Z,99619.41
2022-09-07T17:28:56.675Z,99621.34
2022-09-07T17:33:15.687Z,99621.72
2022-09-07T17:37:32.011Z,99632.06
2022-09-07T17:41:49.432Z,99632.75
2022-09-07T17:46:07.793Z,99641.06
2022-09-07T17:50:23.846Z,99647.41
2022-09-07T17:54:39.834Z,99650.06
2022-09-07T18:00:10.628Z,99660.50
2022-09-07T18:03:35.780Z,99656.88
2022-09-07T18:07:52.074Z,99672.38
2022-09-07T18:12:08.065Z,99682.31
2022-09-07T18:16:33.505Z,99677.94
2022-09-07T18:20:49.505Z,99684.41
2022-09-07T18:25:10.093Z,99690.66
2022-09-07T18:29:33.543Z,99706.84
2022-09-07T18:33:54.145Z,99696.84
2022-09-07T18:38:11.834Z,99690.84
2022-09-07T18:42:29.157Z,99685.19
2022-09-07T18:46:45.229Z,99690.28
2022-09-07T18:51:01.955Z,99687.22
2022-09-07T18:55:18.033Z,99691.53
2022-09-07T18:59:34.110Z,99693.63
2022-09-07T19:03:55.203Z,99697.97
2022-09-07T19:08:11.330Z,99699.69
2022-09-07T19:12:27.330Z,99695.03
2022-09-07T19:16:45.077Z,99680.72
2022-09-07T19:21:06.027Z,99684.22
2022-09-07T19:25:23.425Z,99695.38
2022-09-07T19:29:39.621Z,99696.63
2022-09-07T19:34:03.195Z,99693.34
2022-09-07T19:38:20.343Z,99703.22
2022-09-07T19:42:36.299Z,99692.22
2022-09-07T19:46:52.374Z,99688.44
2022-09-07T19:51:10.971Z,99682.19
2022-09-07T19:55:27.610Z,99678.81
2022-09-07T19:59:45.800Z,99677.19
2022-09-07T20:04:04.659Z,99673.84
2022-09-07T20:08:21.584Z,99675.16
2022-09-07T20:12:37.664Z,99679.13
2022-09-07T20:16:53.670Z,99673.69
2022-09-07T20:21:18.578Z,99675.75
2022-09-07T20:25:34.807Z,99674.56
2022-09-07T20:29:51.740Z,99671.94
2022-09-07T20:34:10.736Z,99672.25
2022-09-07T20:38:26.982Z,99670.63
2022-09-07T20:42:43.071Z,99677.84
2022-09-07T20:47:00.551Z,99672.22
2022-09-07T20:51:20.813Z,99672.00
2022-09-07T20:55:37.382Z,99665.78
2022-09-07T20:59:54.498Z,99663.88
2022-09-07T21:04:10.714Z,99660.94
2022-09-07T21:08:26.879Z,99658.31
2022-09-07T21:12:42.923Z,99675.22
2022-09-07T21:16:58.976Z,99666.13
2022-09-07T21:21:19.806Z,99662.94
2022-09-07T21:25:44.154Z,99660.38
2022-09-07T21:30:00.309Z,99661.09
2022-09-07T21:34:16.885Z,99658.37
2022-09-07T21:38:34.180Z,99666.88
2022-09-07T21:42:52.258Z,99675.13
2022-09-07T21:47:08.276Z,99673.16
2022-09-07T21:51:25.547Z,99658.03
2022-09-07T21:55:41.624Z,99656.41
2022-09-07T21:59:57.735Z,99650.19
2022-09-07T22:04:13.970Z,99652.13
2022-09-07T22:08:30.007Z,99656.31
2022-09-07T22:12:46.139Z,99655.38
2022-09-07T22:17:02.901Z,99660.31
2022-09-07T22:21:24.877Z,99663.31
2022-09-07T22:25:51.265Z,99662.41
2022-09-07T22:30:08.295Z,99656.66
2022-09-07T22:34:24.354Z,99652.81
2022-09-07T22:38:41.168Z,99652.88
2022-09-07T22:42:57.194Z,99646.22
2022-09-07T22:52:24.759Z,99641.06
2022-09-07T22:56:41.113Z,99637.34
2022-09-07T23:01:00.076Z,99623.19
2022-09-07T23:05:16.295Z,99624.25
2022-09-07T23:09:32.402Z,99621.31
2022-09-07T23:13:56.643Z,99609.56
2022-09-07T23:18:18.016Z,99604.09
2022-09-07T23:22:34.105Z,99597.53
2022-09-07T23:26:50.252Z,99596.13
2022-09-07T23:31:09.551Z,99606.03
2022-09-07T23:35:25.622Z,99597.34
2022-09-07T23:39:42.104Z,99592.16
2022-09-07T23:43:58.703Z,99585.56
2022-09-07T23:48:14.748Z,99588.22
2022-09-07T23:52:31.485Z,99585.75
2022-09-07T23:56:47.506Z,99588.28
